Terminal Aerodrome Forecast
Issued by NWS

Home | Current Version | Previous Version | Text Only | Print | Product List | Glossary On
Versions: 1 2 3 4 5 6 7 8 9 10 11 12 13 14 15 16 17 18 19 20
000
FTUS41 KCAR 182337
TAFPQI
TAF
KPQI 182337Z 1900/1924 33012G22KT P6SM -SN SCT025 OVC035
      TEMPO 1900/1902 3SM -SN BR OVC025
     FM190200 33012G22KT P6SM VCSH OVC035
     FM190800 33010G18KT P6SM OVC035
     FM191500 34010KT P6SM BKN040
      AMD LTD TO CLD VIS AND WIND=

USA.gov is the U.S. government's official web portal to all federal, state and local government web resources and services.